Time;durP1;ratioP1;P1;durP2;ratioP2;P2;SDS_P1;SDS_P2;PMS_P1;PMS_P2;Temp;Humidity;BMP_temperature;BMP_pressure;BME280_temperature;BME280_humidity;BME280_pressure;Samples;Min_cycle;Max_cycle;Signal;HPM_P1;HPM_P2
2021/05/01 00:00:42;;;;;;;2.33;1.97;;;23.30;47.50;;;;;;5006541;28;20180;-82
2021/05/01 00:03:09;;;;;;;2.47;2.20;;;23.30;47.50;;;;;;5005956;28;20400;-82
2021/05/01 00:05:35;;;;;;;2.80;2.03;;;23.30;47.60;;;;;;5023823;28;20173;-82
2021/05/01 00:08:03;;;;;;;2.43;1.97;;;23.40;47.60;;;;;;5005729;28;20490;-83
2021/05/01 00:10:30;;;;;;;2.70;2.13;;;23.30;47.50;;;;;;5006643;28;20459;-82
2021/05/01 00:12:57;;;;;;;2.00;1.83;;;23.30;47.50;;;;;;5005731;28;20450;-82
2021/05/01 00:15:25;;;;;;;2.23;1.90;;;23.30;47.50;;;;;;5018517;28;20423;-82
2021/05/01 00:17:51;;;;;;;3.20;2.10;;;23.40;47.60;;;;;;5023835;28;20417;-82
2021/05/01 00:20:17;;;;;;;2.20;1.70;;;23.30;47.50;;;;;;5006198;28;20546;-82
2021/05/01 00:22:45;;;;;;;2.57;2.37;;;23.30;47.50;;;;;;5021445;28;20180;-82
2021/05/01 00:25:12;;;;;;;2.80;1.97;;;23.30;47.60;;;;;;5005889;28;20430;-82
2021/05/01 00:27:38;;;;;;;2.53;2.13;;;23.30;47.60;;;;;;5003330;28;20514;-82
2021/05/01 00:30:05;;;;;;;5.27;1.90;;;23.20;47.60;;;;;;5022704;28;20541;-82
2021/05/01 00:32:33;;;;;;;2.10;1.87;;;23.20;47.50;;;;;;5005943;28;20219;-81
2021/05/01 00:35:03;;;;;;;2.50;2.30;;;23.20;47.60;;;;;;5023803;28;20407;-83
2021/05/01 00:37:31;;;;;;;2.30;2.10;;;23.20;47.50;;;;;;4998762;28;20454;-83
2021/05/01 00:39:57;;;;;;;2.07;1.87;;;23.20;47.60;;;;;;5023834;28;20451;-85
2021/05/01 00:42:22;;;;;;;2.23;1.87;;;23.20;47.60;;;;;;5021113;28;20426;-83
2021/05/01 00:45:01;;;;;;;2.13;1.73;;;23.20;47.70;;;;;;5005971;28;20226;-83
2021/05/01 00:47:27;;;;;;;2.80;2.20;;;23.20;47.60;;;;;;5017669;28;20187;-83
2021/05/01 00:49:52;;;;;;;1.77;1.63;;;23.20;47.70;;;;;;5022418;28;20447;-82
2021/05/01 00:52:20;;;;;;;2.67;1.90;;;23.20;47.70;;;;;;5028150;28;20196;-84
2021/05/01 00:54:46;;;;;;;2.57;2.33;;;23.10;47.60;;;;;;5012006;28;20184;-84
2021/05/01 00:57:12;;;;;;;2.00;1.70;;;23.10;47.60;;;;;;5028429;28;20443;-84
2021/05/01 00:59:38;;;;;;;2.77;1.70;;;23.10;47.70;;;;;;5011949;28;20268;-86
2021/05/01 01:02:04;;;;;;;1.80;1.70;;;23.10;47.70;;;;;;5028721;28;20427;-85
2021/05/01 01:04:31;;;;;;;2.57;2.23;;;23.10;47.70;;;;;;5026113;28;20815;-84
2021/05/01 01:06:57;;;;;;;2.10;1.70;;;23.10;47.60;;;;;;5011158;28;20494;-84
2021/05/01 01:09:23;;;;;;;1.80;1.70;;;23.20;47.60;;;;;;5028140;28;20558;-84
2021/05/01 01:11:51;;;;;;;2.17;1.97;;;23.20;47.70;;;;;;5029199;28;20419;-84
2021/05/01 01:14:17;;;;;;;2.40;2.00;;;23.20;47.60;;;;;;5028726;28;20458;-84
2021/05/01 01:16:46;;;;;;;2.63;1.97;;;23.20;47.60;;;;;;5029155;28;20936;-84
2021/05/01 01:19:15;;;;;;;2.43;1.93;;;23.20;47.60;;;;;;5011100;28;20423;-84
2021/05/01 01:21:48;;;;;;;2.80;1.80;;;23.20;47.70;;;;;;5011962;28;20494;-84
2021/05/01 01:24:16;;;;;;;1.90;1.80;;;23.20;47.50;;;;;;5023590;28;20447;-87
2021/05/01 01:26:43;;;;;;;2.10;1.60;;;23.20;47.50;;;;;;5009413;28;20427;-83
2021/05/01 01:29:13;;;;;;;2.60;2.40;;;23.20;47.50;;;;;;5008682;28;20451;-83
2021/05/01 01:31:39;;;;;;;1.97;1.77;;;23.20;47.50;;;;;;5009200;28;20451;-83
2021/05/01 01:34:05;;;;;;;2.10;1.73;;;23.20;47.50;;;;;;5026042;28;20423;-83
2021/05/01 01:36:31;;;;;;;2.33;2.10;;;23.20;47.60;;;;;;5009218;28;20416;-83
2021/05/01 01:38:57;;;;;;;2.57;2.00;;;23.20;47.60;;;;;;5008738;28;20188;-83
2021/05/01 01:41:23;;;;;;;2.77;2.17;;;23.20;47.60;;;;;;5026003;28;20511;-83
2021/05/01 01:43:49;;;;;;;2.83;1.80;;;23.20;47.50;;;;;;5026194;28;20937;-82
2021/05/01 01:46:17;;;;;;;1.70;1.60;;;23.20;47.60;;;;;;5009283;28;20419;-82
2021/05/01 01:48:43;;;;;;;2.50;2.10;;;23.20;47.70;;;;;;5008639;28;20208;-82
2021/05/01 01:51:18;;;;;;;1.83;1.70;;;23.20;47.60;;;;;;5008932;28;20434;-83
2021/05/01 01:53:44;;;;;;;2.33;2.10;;;23.20;47.50;;;;;;5008965;28;20168;-82
2021/05/01 01:56:10;;;;;;;1.83;1.50;;;23.10;47.50;;;;;;5008763;28;20415;-82
2021/05/01 01:58:38;;;;;;;1.90;1.80;;;23.20;47.60;;;;;;5006109;28;20203;-82
2021/05/01 02:01:07;;;;;;;2.10;1.80;;;23.20;47.50;;;;;;5005066;28;20188;-83
2021/05/01 02:03:33;;;;;;;1.63;1.50;;;23.20;47.50;;;;;;5008394;28;20437;-82
2021/05/01 02:05:59;;;;;;;2.17;1.97;;;23.20;47.70;;;;;;5008835;28;20419;-83
2021/05/01 02:09:13;;;;;;;1.60;1.50;;;23.20;47.60;;;;;;5004187;28;20615;-83
2021/05/01 02:11:39;;;;;;;2.10;1.70;;;23.30;47.50;;;;;;5022715;28;20176;-84
2021/05/01 02:14:05;;;;;;;2.60;1.83;;;23.20;47.70;;;;;;5009109;28;20435;-83
2021/05/01 02:16:35;;;;;;;2.00;1.80;;;23.20;47.60;;;;;;5025140;28;20215;-83
2021/05/01 02:19:04;;;;;;;2.63;1.70;;;23.20;47.50;;;;;;5009287;28;20438;-83
2021/05/01 02:21:30;;;;;;;2.00;1.80;;;23.20;47.40;;;;;;5008658;28;20411;-83
2021/05/01 02:23:57;;;;;;;2.03;1.83;;;23.20;47.50;;;;;;5008805;28;20496;-83
2021/05/01 02:26:23;;;;;;;1.70;1.60;;;23.20;47.50;;;;;;5025966;28;20411;-83
2021/05/01 02:28:49;;;;;;;1.87;1.77;;;23.20;47.70;;;;;;5008410;28;20580;-83
2021/05/01 02:31:20;;;;;;;1.67;1.37;;;23.20;47.60;;;;;;5025423;28;20934;-83
2021/05/01 02:33:46;;;;;;;1.93;1.73;;;23.20;47.50;;;;;;5025733;28;20199;-83
2021/05/01 02:36:12;;;;;;;1.60;1.50;;;23.20;47.60;;;;;;5025231;28;20776;-82
2021/05/01 02:38:37;;;;;;;2.20;1.77;;;23.20;47.50;;;;;;5007846;28;20180;-83
2021/05/01 02:41:03;;;;;;;2.07;1.80;;;23.20;47.50;;;;;;5030273;28;20411;-84
2021/05/01 02:43:29;;;;;;;1.90;1.60;;;23.20;47.70;;;;;;5033430;28;20180;-84
2021/05/01 02:45:55;;;;;;;2.10;1.90;;;23.20;47.80;;;;;;5016553;28;20894;-84
2021/05/01 02:48:21;;;;;;;2.00;1.80;;;23.20;47.70;;;;;;5033778;28;20184;-84
2021/05/01 02:50:47;;;;;;;1.97;1.77;;;23.20;47.60;;;;;;5009182;28;20168;-83
2021/05/01 02:53:13;;;;;;;2.43;2.07;;;23.20;47.60;;;;;;5008572;28;20179;-82
2021/05/01 02:55:42;;;;;;;1.40;1.30;;;23.20;47.60;;;;;;5026173;28;20399;-83
2021/05/01 02:58:08;;;;;;;2.80;2.00;;;23.10;47.60;;;;;;5014681;28;20183;-83
2021/05/01 03:00:34;;;;;;;1.90;1.70;;;23.10;48.10;;;;;;5033532;28;20400;-83
2021/05/01 03:03:00;;;;;;;2.17;1.93;;;23.10;47.70;;;;;;5033499;28;20414;-83
2021/05/01 03:05:29;;;;;;;2.23;1.80;;;23.10;47.60;;;;;;5033486;28;20169;-84
2021/05/01 03:07:54;;;;;;;1.57;1.47;;;23.10;47.70;;;;;;5016378;28;20180;-84
2021/05/01 03:10:29;;;;;;;1.90;1.70;;;23.10;47.70;;;;;;5033059;28;20482;-84
2021/05/01 03:12:58;;;;;;;2.37;2.10;;;23.20;47.60;;;;;;5015975;28;20165;-84
2021/05/01 03:15:25;;;;;;;1.63;1.53;;;23.10;47.50;;;;;;5033729;28;20424;-84
2021/05/01 03:17:52;;;;;;;2.47;1.90;;;23.10;47.60;;;;;;5016710;28;20425;-83
2021/05/01 03:20:25;;;;;;;1.60;1.50;;;23.10;47.50;;;;;;5033591;28;20467;-84
2021/05/01 03:22:51;;;;;;;1.80;1.70;;;22.80;47.40;;;;;;5016290;28;20404;-86
2021/05/01 03:25:18;;;;;;;1.97;1.73;;;23.00;47.70;;;;;;5010900;28;20465;-87
2021/05/01 03:27:45;;;;;;;2.10;1.60;;;23.00;47.50;;;;;;5028392;28;20411;-86
2021/05/01 03:30:16;;;;;;;2.10;1.90;;;22.90;47.50;;;;;;5011335;28;20455;-87
2021/05/01 03:32:42;;;;;;;1.83;1.73;;;23.00;47.50;;;;;;5011186;28;20451;-87
2021/05/01 03:35:10;;;;;;;1.53;1.30;;;23.00;47.50;;;;;;5028595;28;20408;-87
2021/05/01 03:37:36;;;;;;;1.87;1.67;;;23.00;47.50;;;;;;5013096;28;20416;-83
2021/05/01 03:40:05;;;;;;;2.80;1.90;;;23.00;47.70;;;;;;5032738;28;20494;-84
2021/05/01 03:42:31;;;;;;;1.47;1.37;;;23.00;47.50;;;;;;5015126;28;20204;-84
2021/05/01 03:44:59;;;;;;;1.50;1.27;;;23.00;47.80;;;;;;5014787;28;20423;-84
2021/05/01 03:47:25;;;;;;;1.80;1.40;;;23.00;47.60;;;;;;5033213;28;20222;-83
2021/05/01 03:50:00;;;;;;;2.20;1.70;;;23.00;47.60;;;;;;5014771;28;20455;-82
2021/05/01 03:53:12;;;;;;;2.23;1.87;;;23.00;47.70;;;;;;5015282;28;20176;-84
2021/05/01 03:55:37;;;;;;;2.60;1.57;;;22.90;47.50;;;;;;5032438;28;20471;-84
2021/05/01 03:58:03;;;;;;;1.70;1.60;;;22.90;47.90;;;;;;5016205;28;20423;-82
2021/05/01 04:00:29;;;;;;;2.43;1.63;;;22.80;47.80;;;;;;5033159;28;20176;-83
2021/05/01 04:03:18;;;;;;;1.47;1.30;;;22.90;47.80;;;;;;5032996;28;20238;-83
2021/05/01 04:05:44;;;;;;;2.30;1.73;;;22.90;47.60;;;;;;5032633;28;20165;-83
2021/05/01 04:08:10;;;;;;;1.50;1.13;;;22.90;48.00;;;;;;5015204;28;20858;-84
2021/05/01 04:10:35;;;;;;;2.17;1.77;;;22.80;47.90;;;;;;5031981;28;20200;-83
2021/05/01 04:13:01;;;;;;;2.13;1.57;;;22.80;47.80;;;;;;5031854;28;20180;-83
2021/05/01 04:15:46;;;;;;;2.03;1.83;;;22.80;47.80;;;;;;5014279;28;20185;-84
2021/05/01 04:18:15;;;;;;;1.60;1.43;;;22.90;47.80;;;;;;5014524;28;20419;-84
2021/05/01 04:20:41;;;;;;;2.57;1.63;;;22.80;48.00;;;;;;5014601;28;20415;-84
2021/05/01 04:23:08;;;;;;;1.80;1.57;;;22.80;47.70;;;;;;5014829;28;20422;-84
2021/05/01 04:25:35;;;;;;;2.13;1.80;;;22.80;47.90;;;;;;5014031;28;20415;-84
2021/05/01 04:28:01;;;;;;;1.80;1.47;;;22.80;47.70;;;;;;5032166;28;20422;-84
2021/05/01 04:30:27;;;;;;;2.03;1.70;;;22.80;47.90;;;;;;5014060;28;20511;-84
2021/05/01 04:32:54;;;;;;;2.60;2.40;;;22.80;47.70;;;;;;5031213;28;20172;-83
2021/05/01 04:35:20;;;;;;;2.23;2.03;;;22.80;47.60;;;;;;5032841;28;20442;-83
2021/05/01 04:37:46;;;;;;;2.57;2.03;;;22.80;47.70;;;;;;5032125;28;20412;-83
2021/05/01 04:40:12;;;;;;;2.37;1.90;;;22.90;48.00;;;;;;5014397;28;20760;-84
2021/05/01 04:42:46;;;;;;;1.60;1.50;;;22.80;47.70;;;;;;5009616;28;20506;-82
2021/05/01 04:45:13;;;;;;;2.10;1.90;;;22.90;47.80;;;;;;5006926;28;20416;-83
2021/05/01 04:47:39;;;;;;;1.80;1.70;;;22.90;47.60;;;;;;5006756;28;20445;-83
2021/05/01 04:50:06;;;;;;;2.40;2.07;;;22.90;47.70;;;;;;5006330;28;20454;-83
2021/05/01 04:52:32;;;;;;;2.77;1.73;;;22.90;47.50;;;;;;5006035;28;20242;-83
2021/05/01 04:55:01;;;;;;;2.60;2.00;;;22.90;47.50;;;;;;5024084;28;20474;-83
2021/05/01 04:57:27;;;;;;;3.63;2.20;;;22.90;47.50;;;;;;5006893;28;20180;-83
2021/05/01 04:59:53;;;;;;;1.93;1.63;;;22.90;47.40;;;;;;5006803;28;20450;-83
2021/05/01 05:02:19;;;;;;;2.30;2.10;;;22.90;47.50;;;;;;5006286;28;20423;-83
2021/05/01 05:08:07;;;;;;;1.70;1.60;;;22.90;47.30;;;;;;5023633;28;20242;-83
2021/05/01 05:10:34;;;;;;;2.17;1.83;;;23.00;47.60;;;;;;5006859;28;20478;-83
2021/05/01 05:13:23;;;;;;;2.43;1.87;;;22.90;47.40;;;;;;5024619;28;20761;-83
2021/05/01 05:15:49;;;;;;;1.70;1.60;;;22.90;47.30;;;;;;5024795;28;20160;-83
2021/05/01 05:18:14;;;;;;;1.90;1.70;;;22.90;47.40;;;;;;5024500;28;20498;-83
2021/05/01 05:20:40;;;;;;;1.70;1.57;;;22.90;47.60;;;;;;5024392;28;20199;-83
2021/05/01 05:23:06;;;;;;;1.83;1.53;;;23.20;47.60;;;;;;5007061;28;20211;-83
2021/05/01 05:25:32;;;;;;;1.80;1.70;;;22.90;47.30;;;;;;5023605;28;20187;-83
2021/05/01 05:27:58;;;;;;;1.73;1.60;;;23.00;47.40;;;;;;5006926;28;20180;-83
2021/05/01 05:30:24;;;;;;;1.70;1.50;;;23.00;47.40;;;;;;5023858;28;20454;-82
2021/05/01 05:32:49;;;;;;;1.70;1.43;;;23.00;47.40;;;;;;5024040;28;20198;-83
2021/05/01 05:35:15;;;;;;;1.50;1.40;;;23.00;47.50;;;;;;5006584;28;20180;-83
2021/05/01 05:37:41;;;;;;;1.53;1.40;;;23.00;47.50;;;;;;5006449;28;20187;-83
2021/05/01 05:40:07;;;;;;;1.70;1.60;;;23.00;47.50;;;;;;5006216;28;20181;-82
2021/05/01 05:42:34;;;;;;;1.60;1.50;;;23.00;47.30;;;;;;5006435;28;20176;-83
2021/05/01 05:45:01;;;;;;;2.13;1.93;;;23.00;47.40;;;;;;5025846;28;20419;-84
2021/05/01 05:47:30;;;;;;;1.60;1.30;;;23.00;47.60;;;;;;5028433;28;20482;-85
2021/05/01 05:50:12;;;;;;;1.53;1.40;;;23.00;47.30;;;;;;5009948;28;20541;-85
2021/05/01 05:52:39;;;;;;;1.47;1.37;;;23.00;47.40;;;;;;5009342;28;20403;-85
2021/05/01 05:55:05;;;;;;;1.77;1.60;;;23.00;47.30;;;;;;5011094;28;20422;-84
2021/05/01 05:57:31;;;;;;;1.97;1.77;;;23.00;47.20;;;;;;5011267;28;20443;-87
2021/05/01 05:59:57;;;;;;;1.97;1.60;;;23.00;47.30;;;;;;5027836;28;20411;-84
2021/05/01 06:02:23;;;;;;;1.90;1.57;;;23.00;47.40;;;;;;5009632;28;20193;-84
2021/05/01 06:08:17;;;;;;;2.20;1.47;;;23.00;47.20;;;;;;5029396;28;20379;-83
2021/05/01 06:10:45;;;;;;;1.50;1.40;;;23.00;47.50;;;;;;5011852;28;20478;-84
2021/05/01 06:13:16;;;;;;;3.47;2.17;;;23.00;47.60;;;;;;5031785;28;20408;-84
2021/05/01 06:15:43;;;;;;;2.07;1.77;;;22.90;47.20;;;;;;5016073;28;20431;-83
2021/05/01 06:18:13;;;;;;;2.30;1.80;;;23.00;47.20;;;;;;5015314;28;20423;-81
2021/05/01 06:20:40;;;;;;;1.77;1.63;;;23.00;47.20;;;;;;5015681;28;20479;-83
2021/05/01 06:23:10;;;;;;;2.13;1.60;;;23.00;47.30;;;;;;5016028;28;20427;-83
2021/05/01 06:25:39;;;;;;;2.47;2.10;;;23.00;47.20;;;;;;5033852;28;20460;-83
2021/05/01 06:28:05;;;;;;;2.17;1.97;;;23.00;47.40;;;;;;5016866;28;20528;-83
2021/05/01 06:30:32;;;;;;;2.27;2.00;;;23.00;47.50;;;;;;5016964;28;20482;-83
2021/05/01 06:33:43;;;;;;;1.67;1.57;;;23.00;47.40;;;;;;5018375;28;20422;-83
2021/05/01 06:36:10;;;;;;;2.13;1.60;;;23.10;47.20;;;;;;5032936;28;20870;-82
2021/05/01 06:38:36;;;;;;;1.40;1.30;;;23.00;47.20;;;;;;5034418;28;20414;-84
2021/05/01 06:41:08;;;;;;;1.90;1.70;;;23.00;47.70;;;;;;5015925;28;20430;-84
2021/05/01 06:44:07;;;;;;;2.17;1.70;;;23.00;47.20;;;;;;5015356;28;20431;-84
2021/05/01 06:46:46;;;;;;;1.60;1.50;;;23.10;47.20;;;;;;5015940;28;20479;-83
2021/05/01 06:49:18;;;;;;;1.60;1.50;;;23.10;47.30;;;;;;5033508;28;20461;-83
2021/05/01 06:51:47;;;;;;;1.50;1.20;;;23.30;47.40;;;;;;5033115;28;20403;-84
2021/05/01 06:54:13;;;;;;;1.90;1.70;;;23.00;47.20;;;;;;5003301;28;20463;-84
2021/05/01 06:56:44;;;;;;;2.10;1.70;;;23.10;47.40;;;;;;4979878;28;20859;-83
2021/05/01 06:59:10;;;;;;;1.90;1.63;;;23.10;47.20;;;;;;4995494;28;20436;-84
2021/05/01 07:01:57;;;;;;;1.40;1.20;;;23.10;47.50;;;;;;5013466;28;20415;-83
2021/05/01 07:04:26;;;;;;;1.70;1.33;;;23.20;47.20;;;;;;4995831;28;20421;-84
2021/05/01 07:06:53;;;;;;;1.60;1.50;;;23.10;47.50;;;;;;4996029;28;20420;-84
2021/05/01 07:09:19;;;;;;;1.70;1.43;;;23.10;47.30;;;;;;4996017;28;20498;-84
2021/05/01 07:11:53;;;;;;;2.50;1.43;;;23.10;47.30;;;;;;4995492;28;20423;-84
2021/05/01 07:14:21;;;;;;;1.90;1.37;;;23.10;47.20;;;;;;4995404;28;20432;-83
2021/05/01 07:16:50;;;;;;;1.83;1.53;;;23.10;47.20;;;;;;5013399;28;20408;-84
2021/05/01 07:26:03;;;;;;;1.63;1.30;;;23.10;47.30;;;;;;5013167;28;20477;-83
2021/05/01 07:28:39;;;;;;;2.17;1.30;;;23.00;47.40;;;;;;5011965;28;20460;-83
2021/05/01 07:31:10;;;;;;;1.63;1.30;;;23.10;47.40;;;;;;4995530;28;20420;-83
2021/05/01 07:33:48;;;;;;;2.40;1.50;;;23.10;47.30;;;;;;4995488;28;20732;-82
2021/05/01 07:46:28;;;;;;;1.80;1.67;;;23.10;47.20;;;;;;5030748;28;20376;-84
2021/05/01 07:49:02;;;;;;;2.20;1.13;;;23.00;47.30;;;;;;5027326;28;20851;-84
2021/05/01 07:52:06;;;;;;;2.80;1.77;;;23.00;47.40;;;;;;5029652;28;20901;-84
2021/05/01 07:54:48;;;;;;;2.20;1.43;;;23.00;47.20;;;;;;5030654;28;20470;-84
2021/05/01 07:57:35;;;;;;;1.33;1.23;;;23.20;47.50;;;;;;5013455;28;20502;-81
2021/05/01 08:00:18;;;;;;;;;;;;;;;;;;;;;
2021/05/01 08:03:09;;;;;;;1.90;1.47;;;23.10;47.50;;;;;;5031624;28;20431;-84
2021/05/01 08:06:20;;;;;;;1.57;1.47;;;23.10;47.50;;;;;;5029571;28;20948;-84
2021/05/01 08:09:21;;;;;;;1.57;1.47;;;23.20;48.10;;;;;;5012960;28;20423;-84
2021/05/01 08:11:50;;;;;;;1.50;1.20;;;23.10;47.60;;;;;;5025411;28;20429;-84
2021/05/01 08:17:43;;;;;;;2.03;1.53;;;23.10;47.60;;;;;;4983285;28;20463;-87
2021/05/01 08:20:14;;;;;;;2.00;1.57;;;23.10;47.90;;;;;;5011797;28;20412;-85
2021/05/01 08:23:35;;;;;;;;;;;;;;;;;;;;;
2021/05/01 08:26:19;;;;;;;1.87;1.50;;;23.10;47.60;;;;;;5026065;28;20457;-85
2021/05/01 08:28:59;;;;;;;1.63;1.53;;;23.10;47.70;;;;;;5028335;28;20443;-84
2021/05/01 08:31:33;;;;;;;3.03;1.80;;;23.10;47.70;;;;;;5028195;28;20414;-84
2021/05/01 08:34:01;;;;;;;2.50;1.80;;;23.10;48.00;;;;;;5027919;28;20511;-84
2021/05/01 08:36:27;;;;;;;2.67;1.60;;;23.10;47.90;;;;;;5010880;28;20493;-83
2021/05/01 08:39:05;;;;;;;2.00;1.67;;;23.10;48.10;;;;;;5013636;28;20913;-83
2021/05/01 08:41:40;;;;;;;2.27;2.00;;;23.20;48.00;;;;;;5014127;28;20248;-83
2021/05/01 08:44:09;;;;;;;1.57;1.47;;;23.20;48.10;;;;;;5030733;28;20415;-83
2021/05/01 08:46:36;;;;;;;5.13;2.07;;;23.10;47.80;;;;;;5013274;28;20423;-82
2021/05/01 08:49:08;;;;;;;3.03;1.80;;;23.10;47.70;;;;;;5012993;28;20470;-83
2021/05/01 08:51:36;;;;;;;3.10;2.17;;;23.20;47.80;;;;;;5030528;28;20416;-83
2021/05/01 08:54:02;;;;;;;3.20;1.77;;;23.10;47.80;;;;;;5029915;28;20795;-83
2021/05/01 08:56:28;;;;;;;2.67;1.80;;;23.10;47.70;;;;;;5012501;28;20438;-82
2021/05/01 08:59:00;;;;;;;3.77;1.67;;;23.00;48.00;;;;;;5014148;28;20420;-82
2021/05/01 09:02:34;;;;;;;3.57;2.03;;;23.20;47.80;;;;;;5015307;28;20438;-81
2021/05/01 09:05:02;;;;;;;2.20;2.00;;;23.20;47.70;;;;;;5004754;28;20422;-82
2021/05/01 09:07:29;;;;;;;2.20;1.40;;;23.20;47.90;;;;;;5014931;28;20940;-82
2021/05/01 09:09:56;;;;;;;4.37;1.93;;;23.20;48.00;;;;;;5012507;28;20475;-83
2021/05/01 09:12:51;;;;;;;3.53;2.30;;;23.20;48.40;;;;;;5014689;28;20426;-83
2021/05/01 09:15:58;;;;;;;2.37;1.93;;;23.20;47.80;;;;;;5032264;28;20387;-84
2021/05/01 09:18:24;;;;;;;1.87;1.60;;;23.20;47.80;;;;;;4991229;28;20433;-83
2021/05/01 09:20:50;;;;;;;2.23;2.03;;;23.20;48.20;;;;;;4986508;28;20428;-87
2021/05/01 09:23:18;;;;;;;2.07;1.70;;;23.20;48.00;;;;;;4985812;28;20421;-86
2021/05/01 09:25:57;;;;;;;3.40;2.63;;;23.20;47.90;;;;;;4969881;28;20858;-86
2021/05/01 09:28:23;;;;;;;3.27;1.80;;;23.30;47.90;;;;;;4985647;28;20424;-87
2021/05/01 09:31:16;;;;;;;2.07;1.87;;;23.20;47.80;;;;;;4974803;28;20512;-83
2021/05/01 09:33:52;;;;;;;1.87;1.70;;;23.20;47.80;;;;;;4991443;28;20461;-83
2021/05/01 09:36:31;;;;;;;3.27;2.03;;;23.20;47.80;;;;;;4975324;28;20433;-83
2021/05/01 09:38:57;;;;;;;5.70;1.73;;;23.20;47.90;;;;;;4974334;28;20468;-83
2021/05/01 09:41:28;;;;;;;9.73;2.20;;;23.20;47.90;;;;;;4989416;28;20503;-84
2021/05/01 09:44:18;;;;;;;4.77;2.10;;;23.30;48.00;;;;;;4974266;28;20241;-83
2021/05/01 09:46:52;;;;;;;2.27;2.07;;;23.30;47.90;;;;;;4974431;28;20425;-84
2021/05/01 09:49:28;;;;;;;2.90;1.70;;;23.30;48.00;;;;;;4976605;28;20491;-81
2021/05/01 09:52:00;;;;;;;2.27;1.70;;;23.30;48.10;;;;;;4992947;28;20401;-82
2021/05/01 09:54:33;;;;;;;2.53;1.47;;;23.30;48.00;;;;;;4986640;28;20423;-83
2021/05/01 09:57:01;;;;;;;1.93;1.83;;;23.30;47.80;;;;;;5033766;28;20407;-82
2021/05/01 09:59:47;;;;;;;3.73;3.33;;;23.30;47.70;;;;;;5016995;28;20430;-82
2021/05/01 10:02:22;;;;;;;4.43;3.97;;;23.30;47.60;;;;;;5015687;28;20924;-83
2021/05/01 10:05:11;;;;;;;4.60;4.20;;;23.20;47.40;;;;;;5016063;28;20426;-82
2021/05/01 10:07:40;;;;;;;5.13;4.70;;;23.20;47.20;;;;;;5016199;28;20415;-83
2021/05/01 10:10:09;;;;;;;5.20;4.40;;;23.20;47.00;;;;;;5016901;28;20459;-82
2021/05/01 10:12:44;;;;;;;4.50;4.10;;;23.20;46.80;;;;;;5034651;28;20420;-83
2021/05/01 10:25:11;;;;;;;3.23;2.53;;;23.10;46.90;;;;;;4957475;29;20398;-82
2021/05/01 10:27:55;;;;;;;3.20;2.73;;;23.10;47.10;;;;;;4954487;29;20442;-85
2021/05/01 10:30:41;;;;;;;2.53;2.33;;;23.10;47.10;;;;;;4935139;29;20473;-84
2021/05/01 10:33:24;;;;;;;3.43;2.40;;;23.10;47.10;;;;;;4950811;29;20406;-86
2021/05/01 10:36:10;;;;;;;3.53;2.50;;;23.10;47.10;;;;;;4951002;29;20425;-86
2021/05/01 10:46:31;;;;;;;;;;;;;;;;;;;;;
2021/05/01 11:13:28;;;;;;;2.47;2.27;;;23.10;47.60;;;;;;4736135;30;20493;-83
2021/05/01 11:16:57;;;;;;;3.57;3.27;;;23.20;47.60;;;;;;4753457;30;20421;-83
2021/05/01 11:29:48;;;;;;;3.40;3.10;;;23.30;47.70;;;;;;4824503;29;20475;-84
2021/05/01 11:36:39;;;;;;;;;;;;;;;;;;;;;
2021/05/01 11:43:22;;;;;;;2.70;2.50;;;23.40;47.60;;;;;;4879467;29;20454;-83
2021/05/01 11:46:22;;;;;;;3.20;2.90;;;23.40;47.60;;;;;;4894000;29;20423;-81
2021/05/01 11:49:21;;;;;;;2.73;2.53;;;23.40;47.60;;;;;;4856910;29;20427;-82
2021/05/01 11:52:18;;;;;;;;;;;;;;;;;;;;;
2021/05/01 11:55:39;;;;;;;2.70;2.50;;;23.40;47.50;;;;;;4856855;29;20450;-82
2021/05/01 11:58:48;;;;;;;2.57;2.33;;;23.40;47.50;;;;;;4874922;29;20483;-81
2021/05/01 12:02:12;;;;;;;2.90;2.30;;;23.40;47.50;;;;;;4997611;28;20447;-82
2021/05/01 12:04:45;;;;;;;2.67;2.47;;;23.50;47.60;;;;;;4912823;29;20413;-82
2021/05/01 12:07:39;;;;;;;2.90;2.67;;;23.50;47.60;;;;;;4911951;29;20415;-82
2021/05/01 12:13:59;;;;;;;2.80;2.60;;;23.40;47.50;;;;;;4908705;29;20413;-82
2021/05/01 12:17:12;;;;;;;3.20;2.30;;;23.50;47.50;;;;;;4911800;29;20449;-81
2021/05/01 12:19:47;;;;;;;2.57;2.37;;;23.50;47.50;;;;;;4895849;29;20425;-83
2021/05/01 12:22:24;;;;;;;3.53;2.50;;;23.50;47.60;;;;;;4912698;29;20885;-82
2021/05/01 12:27:59;;;;;;;4.00;2.57;;;23.50;47.50;;;;;;4913132;29;20572;-83
2021/05/01 12:30:54;;;;;;;3.70;2.60;;;23.50;47.50;;;;;;4911682;29;20480;-83
2021/05/01 12:51:25;;;;;;;2.30;2.10;;;23.60;47.70;;;;;;4936276;29;20651;-82
2021/05/01 13:08:35;;;;;;;2.43;2.23;;;23.60;47.50;;;;;;4881007;29;20374;-81
2021/05/01 13:16:31;;;;;;;2.30;2.10;;;23.60;47.60;;;;;;4824311;29;20437;-82
2021/05/01 14:03:06;;;;;;;3.90;2.70;;;23.40;46.80;;;;;;5029748;28;20462;-81
2021/05/01 14:06:41;;;;;;;3.20;2.90;;;23.40;46.80;;;;;;4970772;28;20439;-81
2021/05/01 14:09:50;;;;;;;4.33;3.17;;;23.30;46.70;;;;;;4878095;29;20480;-81
2021/05/01 14:12:46;;;;;;;2.90;2.60;;;23.30;46.90;;;;;;4877216;29;20514;-82
2021/05/01 14:15:29;;;;;;;2.50;2.30;;;23.20;46.90;;;;;;4877582;29;20415;-81
2021/05/01 14:18:11;;;;;;;4.57;2.80;;;23.30;47.00;;;;;;4873158;29;20408;-81
2021/05/01 14:21:04;;;;;;;;;;;;;;;;;;;;;
2021/05/01 14:23:37;;;;;;;3.30;3.00;;;23.30;47.10;;;;;;4876985;29;20434;-84
2021/05/01 14:26:51;;;;;;;3.30;2.70;;;23.30;47.10;;;;;;4862089;29;20456;-83
2021/05/01 14:29:17;;;;;;;4.37;2.97;;;23.30;47.00;;;;;;4872703;29;20478;-86
2021/05/01 14:35:13;;;;;;;3.00;2.50;;;23.30;47.10;;;;;;4879084;29;20418;-86
2021/05/01 14:37:42;;;;;;;3.90;2.50;;;23.30;47.30;;;;;;4863245;29;20452;-86
2021/05/01 14:40:14;;;;;;;3.40;2.50;;;23.30;47.30;;;;;;4878641;29;20442;-85
2021/05/01 14:43:08;;;;;;;2.80;2.40;;;23.30;47.30;;;;;;4878965;29;20431;-85
2021/05/01 14:45:36;;;;;;;3.27;2.70;;;23.30;47.10;;;;;;4959797;28;20434;-84
2021/05/01 14:48:15;;;;;;;2.80;2.50;;;23.20;47.10;;;;;;5014135;28;20419;-84
2021/05/01 14:50:46;;;;;;;2.63;2.43;;;23.20;47.10;;;;;;5014538;28;20497;-85
2021/05/01 14:53:21;;;;;;;3.13;2.00;;;23.20;47.10;;;;;;5013637;28;20422;-86
2021/05/01 14:55:51;;;;;;;3.60;2.40;;;23.20;47.10;;;;;;5031326;28;20391;-86
2021/05/01 14:58:39;;;;;;;2.70;2.50;;;23.20;47.10;;;;;;5029087;28;20411;-80
2021/05/01 15:01:22;;;;;;;2.43;2.23;;;23.20;47.10;;;;;;5012578;28;20474;-81
2021/05/01 15:03:48;;;;;;;2.63;2.17;;;23.20;47.20;;;;;;5010886;28;20489;-81
2021/05/01 15:06:23;;;;;;;3.03;2.27;;;23.10;47.10;;;;;;5012052;28;20415;-80
2021/05/01 15:08:50;;;;;;;2.33;2.13;;;23.20;47.20;;;;;;4996454;28;20410;-80
2021/05/01 15:11:20;;;;;;;2.50;2.30;;;23.20;47.20;;;;;;5011403;28;20439;-81
2021/05/01 15:14:20;;;;;;;2.60;2.20;;;23.20;47.20;;;;;;5011912;28;20411;-81
2021/05/01 15:16:57;;;;;;;3.20;2.27;;;23.20;47.10;;;;;;5011423;28;20418;-79
2021/05/01 15:20:19;;;;;;;2.73;2.10;;;23.20;47.20;;;;;;5030280;28;20407;-78
2021/05/01 15:30:22;;;;;;;2.00;1.80;;;23.10;47.20;;;;;;4930998;29;20530;-81
2021/05/01 15:33:19;;;;;;;2.33;2.10;;;23.10;47.20;;;;;;4951868;29;20426;-81
2021/05/01 15:36:08;;;;;;;2.43;1.90;;;23.10;47.20;;;;;;4932962;29;20427;-81
2021/05/01 15:38:35;;;;;;;2.60;2.17;;;23.10;47.20;;;;;;4932774;29;20455;-81
2021/05/01 15:41:06;;;;;;;2.30;2.10;;;23.00;47.30;;;;;;4977009;28;20456;-81
2021/05/01 15:49:58;;;;;;;2.67;2.17;;;23.10;47.20;;;;;;5032118;28;20474;-85
2021/05/01 15:52:51;;;;;;;2.50;2.30;;;23.10;47.30;;;;;;5031870;28;20467;-88
2021/05/01 15:55:33;;;;;;;;;;;;;;;;;;;;;
2021/05/01 15:58:09;;;;;;;2.40;2.20;;;23.00;47.30;;;;;;5030336;28;20416;-84
2021/05/01 16:00:40;;;;;;;2.00;1.80;;;23.00;47.20;;;;;;5030626;28;20399;-85
2021/05/01 16:03:06;;;;;;;2.40;2.20;;;23.00;47.20;;;;;;5012815;28;20411;-85
2021/05/01 16:11:50;;;;;;;2.30;2.10;;;23.10;47.30;;;;;;4972912;28;20445;-85
2021/05/01 16:14:25;;;;;;;10.93;2.33;;;23.00;47.50;;;;;;4954611;29;20448;-85
2021/05/01 16:17:02;;;;;;;2.00;1.80;;;23.10;47.50;;;;;;4971494;29;20445;-84
2021/05/01 16:19:28;;;;;;;2.30;2.10;;;23.10;47.40;;;;;;4970402;29;20421;-84
2021/05/01 16:21:54;;;;;;;2.00;1.80;;;23.00;47.50;;;;;;4968249;29;20414;-85
2021/05/01 16:24:20;;;;;;;2.07;1.87;;;23.10;47.50;;;;;;4968640;29;20194;-85
2021/05/01 16:26:51;;;;;;;3.37;2.20;;;23.10;47.60;;;;;;4968947;29;20213;-85
2021/05/01 16:29:50;;;;;;;2.27;2.00;;;23.10;47.40;;;;;;4958203;29;20497;-85
2021/05/01 16:32:26;;;;;;;2.20;2.00;;;23.10;47.30;;;;;;4970212;29;20434;-84
2021/05/01 16:35:04;;;;;;;2.07;1.90;;;23.00;47.70;;;;;;4969069;29;20420;-86
2021/05/01 16:37:48;;;;;;;3.70;1.70;;;23.00;47.40;;;;;;4969113;29;20432;-85
2021/05/01 16:40:23;;;;;;;2.07;1.87;;;23.10;47.40;;;;;;4969002;29;20417;-85
2021/05/01 16:42:49;;;;;;;2.27;2.00;;;23.10;47.60;;;;;;4952953;29;20449;-85
2021/05/01 16:45:21;;;;;;;2.20;2.00;;;23.00;47.50;;;;;;4990619;28;20408;-85
2021/05/01 16:47:47;;;;;;;2.03;1.80;;;23.00;47.30;;;;;;5012461;28;20183;-85
2021/05/01 16:50:17;;;;;;;2.00;1.80;;;23.00;47.50;;;;;;5011294;28;20945;-85